createdAt,value
2022-10-05T00:03:54.167Z,13.50
2022-10-05T00:12:02.503Z,15.88
2022-10-05T00:20:20.046Z,11.20
2022-10-05T00:28:34.403Z,12.55
2022-10-05T00:36:41.640Z,12.82
2022-10-05T00:44:55.382Z,18.70
2022-10-05T00:53:10.643Z,12.57
2022-10-05T01:01:22.323Z,11.25
2022-10-05T01:09:36.295Z,9.70
2022-10-05T01:17:52.524Z,8.38
2022-10-05T01:26:11.045Z,9.43
2022-10-05T01:34:28.227Z,10.98
2022-10-05T01:42:40.893Z,9.18
2022-10-05T01:51:00.719Z,7.82
2022-10-05T01:59:19.119Z,13.90
2022-10-05T02:07:32.971Z,8.43
2022-10-05T02:15:43.745Z,10.75
2022-10-05T02:23:59.502Z,10.25
2022-10-05T02:32:10.397Z,9.02
2022-10-05T02:40:31.497Z,8.63
2022-10-05T02:48:46.074Z,10.13
2022-10-05T02:57:01.119Z,12.50
2022-10-05T03:05:15.786Z,8.52
2022-10-05T03:13:33.174Z,8.18
2022-10-05T03:21:53.185Z,8.00
2022-10-05T03:30:07.294Z,8.60
2022-10-05T03:38:22.081Z,8.98
2022-10-05T03:46:41.909Z,7.90
2022-10-05T03:54:51.525Z,7.80
2022-10-05T04:03:05.128Z,5.45
2022-10-05T04:11:15.599Z,4.28
2022-10-05T04:19:28.911Z,6.88
2022-10-05T04:27:39.465Z,10.00
2022-10-05T04:36:16.451Z,14.73
2022-10-05T04:44:52.009Z,10.68
2022-10-05T04:53:12.202Z,10.88
2022-10-05T05:01:38.550Z,9.68
2022-10-05T05:10:16.392Z,9.45
2022-10-05T05:18:49.581Z,6.40
2022-10-05T05:27:09.345Z,7.40
2022-10-05T05:35:41.186Z,8.52
2022-10-05T05:44:07.890Z,4.32
2022-10-05T05:52:25.248Z,3.88
2022-10-05T06:00:40.646Z,6.47
2022-10-05T06:08:49.471Z,8.20
2022-10-05T06:17:40.325Z,8.48
2022-10-05T06:26:01.356Z,10.50
2022-10-05T06:34:22.318Z,9.40
2022-10-05T06:42:58.281Z,8.02
2022-10-05T06:59:52.762Z,9.57
2022-10-05T07:08:02.686Z,7.47
2022-10-05T07:16:15.021Z,6.85
2022-10-05T07:24:33.490Z,7.30
2022-10-05T07:32:43.140Z,7.10
2022-10-05T07:40:58.980Z,5.30
2022-10-05T07:49:09.084Z,12.23
2022-10-05T07:57:29.225Z,6.78
2022-10-05T08:05:37.398Z,8.18
2022-10-05T08:13:54.246Z,4.57
2022-10-05T08:22:07.543Z,3.85
2022-10-05T08:30:18.451Z,6.10
2022-10-05T08:38:33.345Z,3.33
2022-10-05T08:47:10.315Z,4.20
2022-10-05T08:55:35.787Z,4.47
2022-10-05T09:04:19.460Z,2.72
2022-10-05T09:12:54.257Z,4.15
2022-10-05T09:21:08.522Z,5.70
2022-10-05T09:29:39.433Z,4.05
2022-10-05T09:38:18.131Z,2.70
2022-10-05T09:46:45.826Z,3.05
2022-10-05T09:55:26.947Z,2.80
2022-10-05T10:04:07.187Z,3.63
2022-10-05T10:20:58.318Z,3.72
2022-10-05T10:29:33.242Z,1.45
2022-10-05T10:37:59.408Z,4.07
2022-10-05T10:46:23.288Z,1.92
2022-10-05T10:54:49.871Z,3.28
2022-10-05T11:03:28.882Z,1.65
2022-10-05T11:12:03.675Z,1.98
2022-10-05T11:20:38.039Z,1.80
2022-10-05T11:29:06.809Z,3.92
2022-10-05T11:37:48.229Z,3.42
2022-10-05T11:46:08.342Z,3.10
2022-10-05T11:54:58.564Z,2.50
2022-10-05T12:03:37.946Z,6.03
2022-10-05T12:12:08.087Z,2.40
2022-10-05T12:20:19.988Z,4.15
2022-10-05T12:28:36.412Z,3.40
2022-10-05T12:37:04.160Z,2.90
2022-10-05T12:45:24.015Z,5.75
2022-10-05T12:53:48.569Z,4.32
2022-10-05T13:02:08.891Z,4.63
2022-10-05T13:10:28.171Z,4.10
2022-10-05T13:18:45.482Z,2.63
2022-10-05T13:26:54.676Z,2.70
2022-10-05T13:35:14.499Z,4.10
2022-10-05T13:43:26.967Z,2.17
2022-10-05T13:51:42.792Z,4.63
2022-10-05T13:59:56.793Z,4.40
2022-10-05T14:08:20.319Z,2.17
2022-10-05T14:24:44.172Z,1.92
2022-10-05T14:32:56.369Z,6.80
2022-10-05T14:41:27.565Z,2.85
2022-10-05T14:49:37.264Z,4.80
2022-10-05T14:57:50.523Z,2.05
2022-10-05T15:05:59.003Z,2.97
2022-10-05T15:14:14.950Z,3.85
2022-10-05T15:22:32.835Z,4.85
2022-10-05T15:30:43.924Z,3.65
2022-10-05T15:39:04.115Z,3.28
2022-10-05T15:47:18.072Z,5.95
2022-10-05T15:55:38.178Z,6.35
2022-10-05T16:03:53.440Z,5.43
2022-10-05T16:12:12.702Z,5.32
2022-10-05T16:20:31.816Z,5.10
2022-10-05T16:28:47.585Z,5.78
2022-10-05T16:37:06.429Z,7.10
2022-10-05T16:45:24.418Z,8.70
2022-10-05T16:53:39.592Z,12.02
2022-10-05T17:02:00.893Z,15.95
2022-10-05T17:10:33.903Z,15.55
2022-10-05T17:19:19.730Z,13.90
2022-10-05T17:27:35.698Z,15.93
2022-10-05T17:35:53.545Z,19.27
2022-10-05T17:44:31.607Z,23.95
2022-10-05T17:52:49.660Z,26.83
2022-10-05T18:01:17.223Z,27.40
2022-10-05T18:09:38.496Z,26.67
2022-10-05T18:17:50.859Z,25.60
2022-10-05T18:26:04.054Z,27.55
2022-10-05T18:34:31.472Z,31.20
2022-10-05T18:42:42.746Z,25.20
2022-10-05T18:50:58.843Z,35.90
2022-10-05T18:59:18.457Z,35.65
2022-10-05T19:07:37.193Z,27.85
2022-10-05T19:15:50.384Z,31.45
2022-10-05T19:24:34.186Z,31.70
2022-10-05T19:32:47.074Z,33.63
2022-10-05T19:41:01.671Z,25.77
2022-10-05T19:49:11.462Z,29.23
2022-10-05T19:57:21.015Z,25.65
2022-10-05T20:05:26.298Z,20.77
2022-10-05T20:13:35.458Z,14.52
2022-10-05T20:21:44.765Z,22.20
2022-10-05T20:29:53.419Z,19.00
2022-10-05T20:38:00.446Z,26.42
2022-10-05T20:46:08.932Z,29.35
2022-10-05T20:54:19.110Z,19.08
2022-10-05T21:02:27.256Z,15.25
2022-10-05T21:10:32.844Z,14.32
2022-10-05T21:18:40.791Z,17.65
2022-10-05T21:26:47.876Z,20.27
2022-10-05T21:34:55.769Z,15.07
2022-10-05T21:43:01.107Z,19.23
2022-10-05T21:51:10.029Z,18.98
2022-10-05T21:59:19.712Z,18.38
2022-10-05T22:07:29.253Z,13.07
2022-10-05T22:15:35.049Z,15.32
2022-10-05T22:23:43.910Z,13.18
2022-10-05T22:31:50.973Z,12.10
2022-10-05T22:39:58.986Z,12.20
2022-10-05T22:48:04.319Z,11.07
2022-10-05T22:56:14.967Z,11.48
2022-10-05T23:04:20.252Z,11.57
2022-10-05T23:12:28.126Z,14.98
2022-10-05T23:20:33.438Z,11.68
2022-10-05T23:28:43.248Z,10.57
2022-10-05T23:36:48.508Z,16.42
2022-10-05T23:44:56.371Z,15.80
2022-10-05T23:53:01.670Z,14.18
